Time;durP1;ratioP1;P1;durP2;ratioP2;P2;SDS_P1;SDS_P2;PMS_P1;PMS_P2;Temp;Humidity;BMP_temperature;BMP_pressure;BME280_temperature;BME280_humidity;BME280_pressure;Samples;Min_cycle;Max_cycle;Signal;HPM_P1;HPM_P2
2023/06/10 00:00:43;;;;;;;4.65;3.83;;;21.10;99.90;;;;;;7391545;19;20201;-83
2023/06/10 00:03:09;;;;;;;4.65;3.97;;;21.10;99.90;;;;;;7393992;19;20147;-82
2023/06/10 00:05:38;;;;;;;4.15;3.75;;;21.00;99.90;;;;;;7394069;19;20188;-81
2023/06/10 00:08:08;;;;;;;4.57;4.03;;;21.00;99.90;;;;;;7394537;19;20237;-82
2023/06/10 00:10:35;;;;;;;4.20;3.80;;;20.80;99.90;;;;;;7393223;19;20194;-82
2023/06/10 00:13:08;;;;;;;4.40;3.75;;;20.70;99.90;;;;;;7392397;19;20483;-81
2023/06/10 00:15:35;;;;;;;4.35;3.92;;;20.40;99.90;;;;;;7393055;19;20134;-81
2023/06/10 00:18:02;;;;;;;4.20;3.80;;;20.40;99.90;;;;;;7391391;19;20589;-81
2023/06/10 00:20:28;;;;;;;3.95;3.58;;;20.40;99.90;;;;;;7393145;19;20595;-81
2023/06/10 00:22:53;;;;;;;3.63;3.33;;;20.10;99.90;;;;;;7392830;19;20602;-81
2023/06/10 00:25:19;;;;;;;4.53;3.85;;;20.20;99.90;;;;;;7392177;19;20134;-81
2023/06/10 00:27:45;;;;;;;5.07;4.38;;;20.10;99.90;;;;;;7391579;19;20135;-81
2023/06/10 00:30:11;;;;;;;4.50;4.10;;;20.30;99.90;;;;;;7394424;19;20142;-81
2023/06/10 00:32:37;;;;;;;4.57;3.67;;;20.50;99.90;;;;;;7388868;19;20157;-81
2023/06/10 00:35:04;;;;;;;4.32;3.92;;;20.30;99.90;;;;;;7392142;19;20158;-82
2023/06/10 00:37:30;;;;;;;6.32;4.45;;;20.00;99.90;;;;;;7391927;19;20161;-80
2023/06/10 00:39:56;;;;;;;4.88;4.15;;;19.90;99.90;;;;;;7391017;19;20479;-82
2023/06/10 00:42:23;;;;;;;4.38;3.90;;;19.80;99.90;;;;;;7384705;19;20139;-81
2023/06/10 00:44:50;;;;;;;5.00;4.30;;;19.70;99.90;;;;;;7391123;19;20214;-82
2023/06/10 00:47:18;;;;;;;8.23;4.53;;;19.80;99.90;;;;;;7392772;19;20190;-81
2023/06/10 00:49:45;;;;;;;4.82;4.15;;;19.70;99.90;;;;;;7389821;19;20535;-82
2023/06/10 00:52:12;;;;;;;6.18;4.18;;;19.90;99.90;;;;;;7391029;19;20689;-81
2023/06/10 00:54:38;;;;;;;5.70;3.85;;;20.10;99.90;;;;;;7390835;19;20161;-81
2023/06/10 00:57:05;;;;;;;4.30;3.90;;;20.10;99.90;;;;;;7391890;19;20560;-82
2023/06/10 00:59:32;;;;;;;5.03;4.18;;;20.20;99.90;;;;;;7389473;19;20138;-82
2023/06/10 01:01:58;;;;;;;5.07;4.40;;;20.30;99.90;;;;;;7392245;19;20139;-81
2023/06/10 01:04:24;;;;;;;5.07;4.20;;;20.40;99.90;;;;;;7389765;19;20524;-81
2023/06/10 01:07:09;;;;;;;7.55;4.10;;;20.50;99.90;;;;;;7391775;19;20123;-81
2023/06/10 01:09:45;;;;;;;5.53;4.25;;;20.50;99.90;;;;;;7391867;19;20161;-82
2023/06/10 01:12:21;;;;;;;4.90;4.38;;;20.30;99.90;;;;;;7382773;19;20130;-81
2023/06/10 01:14:48;;;;;;;5.43;4.00;;;20.10;99.90;;;;;;7392271;19;20637;-81
2023/06/10 01:17:16;;;;;;;4.30;3.90;;;20.20;99.90;;;;;;7392501;19;20147;-81
2023/06/10 01:19:43;;;;;;;4.90;4.13;;;20.10;99.90;;;;;;7392845;19;20151;-81
2023/06/10 01:22:10;;;;;;;5.38;3.78;;;20.10;99.90;;;;;;7393159;19;20644;-81
2023/06/10 01:24:40;;;;;;;5.30;4.20;;;20.00;99.90;;;;;;7390484;19;20130;-81
2023/06/10 01:27:13;;;;;;;4.50;3.72;;;19.80;99.90;;;;;;7392523;19;20149;-81
2023/06/10 01:29:45;;;;;;;5.88;4.53;;;19.90;99.90;;;;;;7391605;19;20139;-81
2023/06/10 01:32:18;;;;;;;4.57;3.97;;;20.00;99.90;;;;;;7390438;19;20218;-81
2023/06/10 01:34:45;;;;;;;4.93;3.90;;;20.20;99.90;;;;;;7392792;19;20138;-81
2023/06/10 01:37:18;;;;;;;4.22;3.83;;;20.40;99.90;;;;;;7384349;19;20139;-82
2023/06/10 01:39:46;;;;;;;4.97;4.13;;;20.40;99.90;;;;;;7393150;19;20138;-82
2023/06/10 01:42:12;;;;;;;6.40;4.10;;;20.50;99.90;;;;;;7390080;19;20154;-81
2023/06/10 01:44:39;;;;;;;4.38;3.92;;;20.40;99.90;;;;;;7390591;19;20127;-81
2023/06/10 01:47:05;;;;;;;6.40;3.85;;;20.40;99.90;;;;;;7392898;19;20134;-81
2023/06/10 01:49:31;;;;;;;4.18;3.78;;;19.90;99.90;;;;;;7390264;19;20593;-82
2023/06/10 01:51:56;;;;;;;4.22;3.63;;;19.90;99.90;;;;;;7388988;19;20187;-81
2023/06/10 01:54:22;;;;;;;4.13;3.63;;;20.00;99.90;;;;;;7388748;19;20164;-80
2023/06/10 01:56:48;;;;;;;4.20;3.80;;;19.90;99.90;;;;;;7385043;19;20131;-81
2023/06/10 01:59:14;;;;;;;4.55;3.88;;;19.80;99.90;;;;;;7391862;19;20165;-82
2023/06/10 02:01:40;;;;;;;4.80;3.92;;;19.90;99.90;;;;;;7392368;19;20177;-82
2023/06/10 02:04:05;;;;;;;4.25;3.85;;;20.00;99.90;;;;;;7391795;19;20143;-83
2023/06/10 02:06:31;;;;;;;4.45;3.75;;;20.00;99.90;;;;;;7392372;19;20135;-81
2023/06/10 02:08:57;;;;;;;5.05;4.47;;;19.80;99.90;;;;;;7392155;19;20246;-81
2023/06/10 02:11:22;;;;;;;4.78;4.30;;;20.00;99.90;;;;;;7390319;19;20135;-81
2023/06/10 02:13:48;;;;;;;4.20;3.80;;;20.10;99.90;;;;;;7391858;19;20157;-82
2023/06/10 02:16:16;;;;;;;3.97;3.55;;;19.90;99.90;;;;;;7392083;19;20150;-82
2023/06/10 02:18:46;;;;;;;4.00;3.60;;;19.90;99.90;;;;;;7392657;19;20126;-80
2023/06/10 02:21:11;;;;;;;5.65;4.38;;;19.90;99.90;;;;;;7391831;19;20135;-81
2023/06/10 02:23:37;;;;;;;4.40;3.97;;;20.00;99.90;;;;;;7393506;19;20133;-81
2023/06/10 02:26:03;;;;;;;4.40;4.00;;;20.00;99.90;;;;;;7393452;19;20521;-82
2023/06/10 02:28:29;;;;;;;4.93;4.13;;;19.90;99.90;;;;;;7392997;19;20160;-82
2023/06/10 02:30:56;;;;;;;5.20;4.15;;;19.80;99.90;;;;;;7390252;19;20143;-81
2023/06/10 02:33:23;;;;;;;5.22;4.30;;;19.80;99.90;;;;;;7391304;19;20150;-82
2023/06/10 02:35:48;;;;;;;5.60;4.50;;;19.80;99.90;;;;;;7391939;19;20582;-82
2023/06/10 02:38:14;;;;;;;6.90;4.45;;;19.90;99.90;;;;;;7395696;19;20139;-81
2023/06/10 02:40:40;;;;;;;5.22;3.88;;;20.00;99.90;;;;;;7395170;19;20241;-81
2023/06/10 02:43:06;;;;;;;4.55;4.15;;;20.00;99.90;;;;;;7395589;19;20189;-82
2023/06/10 02:45:31;;;;;;;4.80;4.40;;;19.90;99.90;;;;;;7397472;19;20142;-80
2023/06/10 02:47:57;;;;;;;4.75;4.22;;;19.70;99.90;;;;;;7398487;19;20626;-80
2023/06/10 02:50:23;;;;;;;5.05;4.30;;;19.70;99.90;;;;;;7401554;19;20146;-81
2023/06/10 02:52:49;;;;;;;4.43;3.50;;;19.70;99.90;;;;;;7393887;19;20139;-81
2023/06/10 02:55:15;;;;;;;4.18;3.80;;;19.80;99.90;;;;;;7401064;19;20143;-80
2023/06/10 02:57:41;;;;;;;4.43;3.90;;;19.90;99.90;;;;;;7398219;19;20146;-80
2023/06/10 03:00:11;;;;;;;6.38;4.30;;;19.90;99.90;;;;;;7398408;19;20131;-81
2023/06/10 03:02:38;;;;;;;5.53;3.90;;;19.90;99.90;;;;;;7393166;19;20134;-82
2023/06/10 03:05:05;;;;;;;5.68;3.92;;;20.00;99.90;;;;;;7392703;19;20471;-81
2023/06/10 03:07:32;;;;;;;4.70;3.60;;;20.00;99.90;;;;;;7392513;19;20150;-81
2023/06/10 03:09:58;;;;;;;4.05;3.65;;;19.90;99.90;;;;;;7387534;19;20154;-82
2023/06/10 03:12:24;;;;;;;6.13;3.75;;;19.90;99.90;;;;;;7391556;19;20131;-82
2023/06/10 03:14:49;;;;;;;5.15;3.60;;;19.90;99.90;;;;;;7389230;19;20542;-81
2023/06/10 03:17:15;;;;;;;5.78;3.88;;;19.80;99.90;;;;;;7390313;19;20143;-81
2023/06/10 03:19:41;;;;;;;4.85;4.35;;;19.90;99.90;;;;;;7386927;19;20162;-82
2023/06/10 03:22:09;;;;;;;4.40;4.00;;;19.80;99.90;;;;;;7390058;19;20141;-82
2023/06/10 03:24:35;;;;;;;4.85;4.18;;;19.80;99.90;;;;;;7388165;19;20139;-82
2023/06/10 03:27:04;;;;;;;4.00;3.50;;;19.70;99.90;;;;;;7388096;19;20169;-83
2023/06/10 03:29:30;;;;;;;4.63;4.03;;;19.80;99.90;;;;;;7389812;19;20559;-83
2023/06/10 03:31:56;;;;;;;4.10;3.65;;;19.80;99.90;;;;;;7386028;19;20146;-81
2023/06/10 03:34:23;;;;;;;3.97;3.42;;;19.90;99.90;;;;;;7388837;19;20134;-82
2023/06/10 03:36:49;;;;;;;4.10;3.40;;;19.70;99.90;;;;;;7386247;19;20145;-81
2023/06/10 03:39:15;;;;;;;3.80;3.08;;;19.50;99.90;;;;;;7387977;19;20131;-82
2023/06/10 03:41:41;;;;;;;3.55;3.25;;;19.30;99.90;;;;;;7386954;19;20156;-82
2023/06/10 03:44:07;;;;;;;4.13;3.72;;;19.20;99.90;;;;;;7388124;19;20194;-82
2023/06/10 03:46:32;;;;;;;4.90;3.50;;;19.00;99.90;;;;;;7388703;19;20169;-81
2023/06/10 03:49:00;;;;;;;3.65;3.30;;;18.90;99.90;;;;;;7389011;19;20130;-82
2023/06/10 03:51:27;;;;;;;3.53;3.10;;;19.10;99.90;;;;;;7384471;19;20157;-82
2023/06/10 03:53:52;;;;;;;4.25;3.33;;;19.20;99.90;;;;;;7387443;19;20137;-81
2023/06/10 03:56:18;;;;;;;4.20;3.80;;;19.20;99.90;;;;;;7385104;19;20650;-81
2023/06/10 03:58:44;;;;;;;3.90;3.53;;;19.40;99.90;;;;;;7386038;19;20194;-81
2023/06/10 04:01:10;;;;;;;3.92;3.40;;;19.40;99.90;;;;;;7385650;19;20595;-82
2023/06/10 04:03:36;;;;;;;4.20;3.65;;;19.00;99.90;;;;;;7387449;19;20127;-81
2023/06/10 04:06:02;;;;;;;3.80;3.40;;;18.80;99.90;;;;;;7389206;19;20593;-81
2023/06/10 04:08:28;;;;;;;3.72;3.33;;;19.00;99.90;;;;;;7387302;19;20134;-81
2023/06/10 04:10:54;;;;;;;3.92;3.47;;;19.10;99.90;;;;;;7386210;19;20535;-81
2023/06/10 04:13:20;;;;;;;3.65;3.35;;;19.00;99.90;;;;;;7383749;19;20459;-82
2023/06/10 04:15:46;;;;;;;4.10;3.75;;;18.90;99.90;;;;;;7386100;19;20495;-82
2023/06/10 04:18:11;;;;;;;4.32;3.92;;;19.00;99.90;;;;;;7384531;19;20138;-82
2023/06/10 04:20:37;;;;;;;5.70;3.90;;;19.20;99.90;;;;;;7386995;19;20154;-81
2023/06/10 04:23:03;;;;;;;3.63;3.33;;;19.20;99.90;;;;;;7385484;19;20141;-82
2023/06/10 04:25:29;;;;;;;5.05;4.07;;;19.40;99.90;;;;;;7384469;19;20147;-81
2023/06/10 04:27:55;;;;;;;3.90;3.50;;;19.30;99.90;;;;;;7386006;19;20127;-81
2023/06/10 04:30:21;;;;;;;4.60;4.00;;;19.50;99.90;;;;;;7388091;19;20598;-81
2023/06/10 04:32:47;;;;;;;5.15;4.07;;;19.70;99.90;;;;;;7382748;19;20161;-81
2023/06/10 04:35:15;;;;;;;6.00;3.42;;;19.70;99.90;;;;;;7384933;19;20131;-82
2023/06/10 04:37:41;;;;;;;4.20;3.75;;;19.70;99.90;;;;;;7384019;19;20149;-82
2023/06/10 04:40:07;;;;;;;3.80;3.38;;;19.70;99.90;;;;;;7387319;19;20634;-82
2023/06/10 04:42:34;;;;;;;6.43;3.80;;;19.40;99.90;;;;;;7391666;19;20205;-82
2023/06/10 04:44:59;;;;;;;4.97;4.32;;;19.30;99.90;;;;;;7390785;19;20214;-81
2023/06/10 04:47:26;;;;;;;6.10;4.00;;;19.30;99.90;;;;;;7391961;19;20146;-82
2023/06/10 04:49:52;;;;;;;6.45;4.18;;;19.60;99.90;;;;;;7391172;19;20205;-82
2023/06/10 04:52:18;;;;;;;4.20;3.42;;;19.70;99.90;;;;;;7390854;19;20165;-81
2023/06/10 04:54:44;;;;;;;4.68;3.90;;;19.40;99.90;;;;;;7390373;19;20186;-82
2023/06/10 04:57:11;;;;;;;4.40;3.80;;;19.30;99.90;;;;;;7392350;19;20518;-81
2023/06/10 04:59:38;;;;;;;4.55;3.78;;;19.50;99.90;;;;;;7390348;19;20146;-81
2023/06/10 05:02:05;;;;;;;4.35;3.80;;;19.70;99.90;;;;;;7390166;19;20153;-83
2023/06/10 05:04:31;;;;;;;4.55;3.78;;;19.70;99.90;;;;;;7391218;19;20130;-82
2023/06/10 05:06:56;;;;;;;3.70;3.40;;;19.80;99.90;;;;;;7391708;19;20141;-81
2023/06/10 05:09:22;;;;;;;4.15;3.70;;;19.70;99.90;;;;;;7391454;19;20559;-83
2023/06/10 05:11:48;;;;;;;3.50;3.20;;;19.60;99.90;;;;;;7392162;19;20153;-80
2023/06/10 05:14:16;;;;;;;5.30;3.92;;;19.40;99.90;;;;;;7390996;19;20134;-81
2023/06/10 05:16:43;;;;;;;4.03;3.63;;;19.60;99.90;;;;;;7390962;19;20470;-82
2023/06/10 05:19:11;;;;;;;4.40;3.60;;;19.50;99.90;;;;;;7390953;19;20497;-80
2023/06/10 05:21:39;;;;;;;3.72;3.38;;;19.70;99.90;;;;;;7390418;19;20504;-82
2023/06/10 05:24:06;;;;;;;5.45;3.75;;;19.90;99.90;;;;;;7388122;19;20590;-83
2023/06/10 05:26:32;;;;;;;6.00;3.60;;;20.00;99.90;;;;;;7389427;19;20150;-82
2023/06/10 05:28:58;;;;;;;4.88;3.63;;;20.10;99.90;;;;;;7387740;19;20150;-81
2023/06/10 05:31:24;;;;;;;5.38;3.67;;;20.10;99.90;;;;;;7390775;19;20135;-81
2023/06/10 05:33:50;;;;;;;3.67;3.35;;;20.10;99.90;;;;;;7389042;19;20135;-82
2023/06/10 05:36:15;;;;;;;4.53;4.03;;;20.20;99.90;;;;;;7390349;19;20235;-81
2023/06/10 05:38:41;;;;;;;3.88;3.47;;;20.30;99.90;;;;;;7388872;19;20150;-81
2023/06/10 05:41:07;;;;;;;5.90;3.53;;;20.30;99.90;;;;;;7388777;19;20155;-80
2023/06/10 05:43:33;;;;;;;3.63;3.33;;;20.30;99.90;;;;;;7386371;19;20213;-82
2023/06/10 05:45:58;;;;;;;3.80;3.40;;;20.40;99.90;;;;;;7393215;19;20150;-81
2023/06/10 05:48:24;;;;;;;5.00;3.42;;;20.30;99.90;;;;;;7395742;19;20161;-81
2023/06/10 05:50:50;;;;;;;4.10;3.70;;;20.30;99.90;;;;;;7391544;19;20165;-82
2023/06/10 05:53:16;;;;;;;4.10;3.40;;;20.40;99.90;;;;;;7390503;19;20138;-82
2023/06/10 05:55:46;;;;;;;4.93;3.65;;;20.40;99.90;;;;;;7397160;19;20884;-82
2023/06/10 05:58:12;;;;;;;4.40;3.65;;;20.40;99.90;;;;;;7394290;19;20146;-83
2023/06/10 06:00:39;;;;;;;4.03;3.17;;;20.40;99.90;;;;;;7390166;19;20150;-81
2023/06/10 06:03:10;;;;;;;4.68;3.70;;;20.50;99.90;;;;;;7389681;19;20472;-82
2023/06/10 06:05:39;;;;;;;4.85;4.28;;;20.50;99.90;;;;;;7389214;19;20182;-82
2023/06/10 06:08:05;;;;;;;3.75;3.38;;;20.70;99.90;;;;;;7391157;19;20142;-82
2023/06/10 06:10:31;;;;;;;3.80;3.45;;;20.80;99.90;;;;;;7388245;19;20131;-82
2023/06/10 06:12:57;;;;;;;4.35;3.95;;;21.60;99.90;;;;;;7387289;19;20126;-81
2023/06/10 06:15:23;;;;;;;5.40;3.53;;;23.40;99.90;;;;;;7389679;19;20138;-84
2023/06/10 06:17:48;;;;;;;4.55;3.67;;;24.70;99.90;;;;;;7388175;19;20149;-83
2023/06/10 06:20:14;;;;;;;4.38;3.88;;;24.70;99.90;;;;;;7388923;19;20158;-80
2023/06/10 06:22:40;;;;;;;4.00;3.60;;;25.40;99.90;;;;;;7387851;19;20179;-79
2023/06/10 06:25:06;;;;;;;3.50;3.20;;;27.00;99.90;;;;;;7391011;19;20646;-84
2023/06/10 06:27:32;;;;;;;3.97;3.58;;;28.60;99.90;;;;;;7389938;19;20610;-83
2023/06/10 06:29:58;;;;;;;3.50;3.20;;;29.40;98.30;;;;;;7388052;19;20170;-85
2023/06/10 06:32:27;;;;;;;6.00;3.70;;;29.90;96.90;;;;;;7387813;19;20495;-83
2023/06/10 06:34:54;;;;;;;5.85;3.65;;;30.70;95.90;;;;;;7389164;19;20168;-83
2023/06/10 06:37:24;;;;;;;3.92;3.53;;;31.40;93.90;;;;;;7387037;19;20241;-83
2023/06/10 06:39:53;;;;;;;3.28;2.97;;;31.90;92.50;;;;;;7387232;19;20145;-82
2023/06/10 06:42:20;;;;;;;4.65;3.35;;;32.20;91.60;;;;;;7387344;19;20158;-83
2023/06/10 06:44:49;;;;;;;4.13;3.72;;;32.50;91.00;;;;;;7387290;19;20154;-83
2023/06/10 06:47:17;;;;;;;4.20;3.75;;;32.50;90.50;;;;;;7388135;19;20146;-83
2023/06/10 06:49:43;;;;;;;4.53;3.40;;;33.00;90.00;;;;;;7388008;19;20574;-84
2023/06/10 06:52:09;;;;;;;3.78;3.47;;;32.60;88.70;;;;;;7386771;19;20154;-83
2023/06/10 06:54:35;;;;;;;3.55;3.20;;;32.00;90.00;;;;;;7388850;19;20142;-84
2023/06/10 06:57:00;;;;;;;5.15;3.35;;;31.30;90.60;;;;;;7388164;19;20134;-83
2023/06/10 06:59:26;;;;;;;4.43;3.67;;;30.90;91.10;;;;;;7390006;19;20590;-83
2023/06/10 07:01:53;;;;;;;3.95;3.55;;;30.20;91.70;;;;;;7388333;19;20143;-81
2023/06/10 07:04:25;;;;;;;4.10;3.53;;;30.10;92.00;;;;;;7390514;19;20158;-83
2023/06/10 07:06:52;;;;;;;4.43;3.00;;;30.10;92.10;;;;;;7388052;19;20142;-83
2023/06/10 07:09:18;;;;;;;3.47;3.17;;;30.10;92.40;;;;;;7389325;19;20163;-82
2023/06/10 07:11:44;;;;;;;4.70;3.03;;;29.90;92.30;;;;;;7385657;19;20138;-81
2023/06/10 07:14:09;;;;;;;3.70;3.30;;;29.80;92.70;;;;;;7392539;19;20143;-81
2023/06/10 07:16:38;;;;;;;4.10;3.70;;;30.20;92.20;;;;;;7391894;19;20172;-81
2023/06/10 07:19:04;;;;;;;3.85;3.45;;;30.20;92.00;;;;;;7393183;19;20210;-82
2023/06/10 07:21:32;;;;;;;3.42;3.10;;;29.90;92.30;;;;;;7388727;19;20682;-82
2023/06/10 07:23:58;;;;;;;3.45;3.15;;;30.10;92.30;;;;;;7389184;19;20141;-82
2023/06/10 07:26:27;;;;;;;3.60;3.30;;;30.50;92.00;;;;;;7382455;19;20156;-81
2023/06/10 07:28:56;;;;;;;4.05;3.65;;;30.60;91.90;;;;;;7387868;19;20499;-82
2023/06/10 07:31:23;;;;;;;3.53;3.22;;;30.00;91.90;;;;;;7386080;19;20572;-82
2023/06/10 07:33:49;;;;;;;3.28;2.97;;;29.40;92.70;;;;;;7386188;19;20154;-78
2023/06/10 07:36:14;;;;;;;3.72;3.40;;;29.10;93.10;;;;;;7385796;19;20137;-77
2023/06/10 07:38:42;;;;;;;3.90;3.53;;;28.60;93.50;;;;;;7387052;19;20134;-78
2023/06/10 07:41:08;;;;;;;3.50;3.20;;;28.30;94.20;;;;;;7383857;19;20157;-78
2023/06/10 07:43:34;;;;;;;5.82;3.40;;;28.10;94.70;;;;;;7378655;19;20157;-78
2023/06/10 07:46:01;;;;;;;4.18;3.50;;;28.10;94.80;;;;;;7384815;19;20153;-78
2023/06/10 07:48:27;;;;;;;3.70;3.28;;;28.10;94.80;;;;;;7385316;19;20131;-76
2023/06/10 07:50:53;;;;;;;3.90;3.50;;;28.10;94.90;;;;;;7384671;19;20147;-79
2023/06/10 07:53:18;;;;;;;4.00;3.67;;;28.10;95.20;;;;;;7381695;19;20521;-77
2023/06/10 07:55:44;;;;;;;4.75;3.60;;;28.10;95.10;;;;;;7385829;19;20151;-78
2023/06/10 07:58:10;;;;;;;3.67;3.28;;;28.20;95.20;;;;;;7384174;19;20135;-77
2023/06/10 08:00:36;;;;;;;5.38;3.53;;;28.50;95.20;;;;;;7383175;19;20169;-78
2023/06/10 08:03:01;;;;;;;3.70;3.30;;;29.10;94.60;;;;;;7385793;19;20157;-78
2023/06/10 08:05:27;;;;;;;3.55;3.05;;;29.60;93.80;;;;;;7380802;19;20150;-77
2023/06/10 08:07:53;;;;;;;3.42;3.13;;;29.50;93.70;;;;;;7380712;19;20143;-78
2023/06/10 08:10:19;;;;;;;3.55;3.15;;;29.20;93.60;;;;;;7377612;19;20145;-75
2023/06/10 08:12:45;;;;;;;5.32;3.75;;;28.70;94.30;;;;;;7382278;19;20452;-76
2023/06/10 08:15:11;;;;;;;4.00;3.50;;;28.60;94.70;;;;;;7385365;19;20138;-75
2023/06/10 08:17:37;;;;;;;4.43;3.35;;;28.90;94.40;;;;;;7391636;19;20141;-75
2023/06/10 08:20:06;;;;;;;3.97;3.17;;;29.30;94.00;;;;;;7389852;19;20148;-76
2023/06/10 08:22:33;;;;;;;4.85;3.40;;;29.10;93.30;;;;;;7391392;19;20206;-76
2023/06/10 08:24:59;;;;;;;3.20;2.90;;;28.70;93.80;;;;;;7392524;19;20133;-76
2023/06/10 08:27:25;;;;;;;4.57;3.00;;;28.50;93.90;;;;;;7389471;19;20143;-76
2023/06/10 08:29:51;;;;;;;4.45;4.03;;;28.50;94.40;;;;;;7388196;19;20229;-76
2023/06/10 08:32:17;;;;;;;3.75;3.15;;;28.60;95.00;;;;;;7389084;19;20131;-83
2023/06/10 08:35:08;;;;;;;3.58;3.22;;;28.90;94.50;;;;;;7392433;19;20142;-80
2023/06/10 08:37:57;;;;;;;3.50;3.20;;;28.80;93.80;;;;;;7392845;19;20150;-79
2023/06/10 08:40:24;;;;;;;4.20;3.80;;;28.80;93.70;;;;;;7388009;19;20150;-79
2023/06/10 08:43:07;;;;;;;4.57;3.20;;;28.80;93.70;;;;;;7390499;19;20504;-81
2023/06/10 08:45:35;;;;;;;3.30;3.00;;;28.60;93.60;;;;;;7392549;19;20146;-81
2023/06/10 08:48:06;;;;;;;5.60;3.13;;;28.40;94.20;;;;;;7390131;19;20218;-80
2023/06/10 08:50:51;;;;;;;3.50;3.17;;;28.50;94.60;;;;;;7393454;19;20142;-83
2023/06/10 08:53:19;;;;;;;3.20;2.88;;;28.70;93.90;;;;;;7391129;19;20162;-82
2023/06/10 08:55:51;;;;;;;3.70;3.30;;;28.60;93.50;;;;;;7395122;19;20159;-81
2023/06/10 08:58:17;;;;;;;3.25;2.95;;;28.50;93.70;;;;;;7392524;19;20469;-83
2023/06/10 09:00:43;;;;;;;4.32;3.38;;;28.50;93.90;;;;;;7392115;19;20654;-84
2023/06/10 09:03:09;;;;;;;3.70;3.35;;;28.10;93.80;;;;;;7389341;19;20152;-81
2023/06/10 09:05:38;;;;;;;4.13;3.70;;;27.90;94.30;;;;;;7389837;19;20158;-82
2023/06/10 09:08:07;;;;;;;3.60;3.08;;;27.90;94.20;;;;;;7387958;19;20135;-79
2023/06/10 09:10:33;;;;;;;5.60;5.10;;;27.90;94.40;;;;;;7389906;19;20463;-79
2023/06/10 09:12:59;;;;;;;3.47;3.17;;;27.90;94.70;;;;;;7387903;19;20158;-80
2023/06/10 09:15:25;;;;;;;3.58;3.28;;;27.80;94.70;;;;;;7389074;19;20175;-77
2023/06/10 09:17:51;;;;;;;8.25;5.10;;;27.80;94.50;;;;;;7390537;19;20135;-79
2023/06/10 09:20:18;;;;;;;3.70;3.40;;;27.70;94.50;;;;;;7389857;19;20134;-76
2023/06/10 09:22:47;;;;;;;3.63;3.33;;;27.40;94.80;;;;;;7391135;19;20159;-79
2023/06/10 09:25:13;;;;;;;4.38;3.22;;;27.30;95.20;;;;;;7389625;19;20153;-78
2023/06/10 09:27:57;;;;;;;3.72;3.38;;;27.30;95.30;;;;;;7390206;19;20169;-78
2023/06/10 09:30:27;;;;;;;4.30;3.35;;;27.30;95.50;;;;;;7388954;19;20143;-79
2023/06/10 09:32:57;;;;;;;3.88;3.47;;;27.10;95.50;;;;;;7385481;19;20134;-79
2023/06/10 09:35:24;;;;;;;4.28;3.63;;;27.20;95.90;;;;;;7389330;19;20150;-78
2023/06/10 09:37:52;;;;;;;5.93;5.03;;;27.30;95.90;;;;;;7388620;19;20497;-82
2023/06/10 09:40:18;;;;;;;3.40;3.10;;;27.30;95.70;;;;;;7388495;19;20150;-79
2023/06/10 09:42:44;;;;;;;4.20;3.42;;;27.20;95.70;;;;;;7388632;19;20168;-78
2023/06/10 09:45:09;;;;;;;3.83;3.20;;;27.10;96.00;;;;;;7390018;19;20254;-80
2023/06/10 09:47:35;;;;;;;3.92;3.53;;;27.00;96.10;;;;;;7389167;19;20667;-78
2023/06/10 09:50:01;;;;;;;4.20;3.80;;;27.10;96.40;;;;;;7388321;19;20145;-80
2023/06/10 09:52:29;;;;;;;3.90;3.55;;;27.40;96.30;;;;;;7387609;19;20162;-82
2023/06/10 09:55:01;;;;;;;4.50;4.10;;;27.40;95.70;;;;;;7389681;19;20167;-80
2023/06/10 09:57:32;;;;;;;4.38;3.88;;;27.40;95.90;;;;;;7390080;19;20153;-84
2023/06/10 09:59:58;;;;;;;5.95;3.42;;;27.30;96.20;;;;;;7393108;19;20158;-86
2023/06/10 10:02:24;;;;;;;4.72;4.22;;;27.30;95.90;;;;;;7390581;19;20194;-84
2023/06/10 10:04:50;;;;;;;3.72;3.42;;;27.10;96.20;;;;;;7393275;19;20147;-80
2023/06/10 10:07:15;;;;;;;3.28;2.97;;;27.00;96.10;;;;;;7390955;19;20573;-84
2023/06/10 10:09:42;;;;;;;3.53;2.78;;;26.90;96.20;;;;;;7391738;19;20150;-77
2023/06/10 10:12:11;;;;;;;3.60;3.30;;;27.00;96.60;;;;;;7394230;19;20157;-83
2023/06/10 10:14:38;;;;;;;3.47;3.17;;;27.10;96.40;;;;;;7391482;19;20874;-75
2023/06/10 10:17:11;;;;;;;3.58;3.28;;;27.20;96.20;;;;;;7391017;19;20147;-84
2023/06/10 10:19:51;;;;;;;5.65;3.13;;;27.10;96.00;;;;;;7395878;19;20155;-79
2023/06/10 10:22:25;;;;;;;3.00;2.80;;;27.10;96.90;;;;;;7391582;19;20158;-81
2023/06/10 10:24:55;;;;;;;5.80;3.60;;;27.30;96.00;;;;;;7397201;19;20591;-82
2023/06/10 10:27:27;;;;;;;4.78;3.22;;;27.40;95.60;;;;;;7394021;19;20150;-82
2023/06/10 10:29:54;;;;;;;3.35;3.05;;;27.40;95.40;;;;;;7395883;19;20193;-79
2023/06/10 10:32:45;;;;;;;3.38;3.08;;;27.30;95.70;;;;;;7391410;19;20237;-80
2023/06/10 10:35:21;;;;;;;3.60;3.22;;;27.30;95.90;;;;;;7392284;19;20165;-80
2023/06/10 10:37:48;;;;;;;3.42;3.10;;;27.40;95.30;;;;;;7387045;19;20240;-80
2023/06/10 10:40:15;;;;;;;3.45;3.15;;;27.30;95.40;;;;;;7387627;19;20130;-80
2023/06/10 10:42:42;;;;;;;3.65;3.30;;;27.40;95.90;;;;;;7386436;19;20170;-79
2023/06/10 10:45:11;;;;;;;3.10;2.80;;;27.70;95.00;;;;;;7388530;19;20139;-79
2023/06/10 10:47:39;;;;;;;3.30;3.00;;;27.70;94.90;;;;;;7390848;19;20769;-82
2023/06/10 10:50:17;;;;;;;3.72;3.42;;;27.80;94.50;;;;;;7391351;19;20218;-82
2023/06/10 10:52:59;;;;;;;4.10;3.40;;;27.90;94.30;;;;;;7389640;19;20149;-82
2023/06/10 10:55:28;;;;;;;5.07;4.50;;;27.90;94.10;;;;;;7386895;19;20240;-80
2023/06/10 10:58:05;;;;;;;9.05;6.85;;;27.90;94.30;;;;;;7388608;19;20142;-82
2023/06/10 11:00:57;;;;;;;3.60;3.30;;;27.90;95.00;;;;;;7388141;19;20150;-84
2023/06/10 11:03:28;;;;;;;3.95;3.55;;;27.90;94.90;;;;;;7389556;19;20158;-85
2023/06/10 11:05:57;;;;;;;3.72;3.42;;;27.80;94.80;;;;;;7394652;19;20245;-83
2023/06/10 11:08:32;;;;;;;4.00;3.00;;;27.70;94.90;;;;;;7390099;19;20143;-84
2023/06/10 11:10:58;;;;;;;4.93;3.53;;;27.60;95.00;;;;;;7389859;19;20138;-83
2023/06/10 11:13:26;;;;;;;4.10;3.50;;;27.40;95.20;;;;;;7387427;19;20577;-82
2023/06/10 11:15:56;;;;;;;4.28;3.30;;;27.30;95.20;;;;;;7390045;19;20625;-82
2023/06/10 11:18:41;;;;;;;4.53;3.38;;;27.10;95.50;;;;;;7388636;19;20142;-82
2023/06/10 11:21:07;;;;;;;8.60;4.20;;;27.00;95.60;;;;;;7389210;19;20138;-81
2023/06/10 11:23:38;;;;;;;13.57;4.75;;;27.10;95.60;;;;;;7387823;19;20241;-81
2023/06/10 11:26:32;;;;;;;9.43;4.30;;;27.20;95.70;;;;;;7391420;19;20198;-79
2023/06/10 11:28:57;;;;;;;13.85;4.03;;;27.50;95.20;;;;;;7387074;19;20158;-82
2023/06/10 11:31:30;;;;;;;4.72;3.03;;;27.70;95.00;;;;;;7387529;19;20138;-82
2023/06/10 11:33:57;;;;;;;4.82;3.38;;;27.90;94.40;;;;;;7390561;19;20142;-83
2023/06/10 11:36:24;;;;;;;3.20;2.90;;;27.80;94.20;;;;;;7389806;19;20151;-81
2023/06/10 11:38:59;;;;;;;4.25;3.38;;;27.70;94.80;;;;;;7391327;19;20139;-82
2023/06/10 11:41:26;;;;;;;3.20;2.90;;;27.90;95.00;;;;;;7384461;19;20134;-81
2023/06/10 11:43:53;;;;;;;4.05;3.65;;;28.10;94.20;;;;;;7383689;19;20656;-81
2023/06/10 11:46:19;;;;;;;3.33;3.03;;;28.20;94.10;;;;;;7386782;19;20149;-83
2023/06/10 11:48:50;;;;;;;4.20;3.15;;;28.30;94.00;;;;;;7389792;19;20194;-82
2023/06/10 11:51:16;;;;;;;3.78;3.20;;;28.30;93.50;;;;;;7393129;19;20138;-82
2023/06/10 11:53:48;;;;;;;6.05;3.22;;;28.20;93.70;;;;;;7394381;19;20157;-83
2023/06/10 11:56:22;;;;;;;3.08;2.88;;;28.30;93.60;;;;;;7393508;19;20142;-81
2023/06/10 11:59:06;;;;;;;6.72;3.40;;;28.30;93.30;;;;;;7393008;19;20154;-80
2023/06/10 12:01:36;;;;;;;4.53;3.15;;;28.20;93.40;;;;;;7396969;19;20134;-83
2023/06/10 12:04:07;;;;;;;3.78;3.30;;;28.10;93.70;;;;;;7397135;19;20754;-82
2023/06/10 12:06:44;;;;;;;3.40;3.10;;;28.00;93.20;;;;;;7396014;19;20146;-80
2023/06/10 12:09:29;;;;;;;4.00;3.63;;;27.90;93.30;;;;;;7390633;19;20582;-78
2023/06/10 12:12:04;;;;;;;4.60;3.25;;;27.80;93.30;;;;;;7389478;19;20151;-81
2023/06/10 12:15:09;;;;;;;3.90;3.42;;;27.80;93.50;;;;;;7393402;19;20173;-79
2023/06/10 12:17:36;;;;;;;4.05;3.72;;;27.70;93.40;;;;;;7389932;19;20146;-79
2023/06/10 12:20:25;;;;;;;3.55;3.25;;;27.70;93.40;;;;;;7388308;19;20148;-81
2023/06/10 12:22:50;;;;;;;3.33;3.03;;;27.70;93.40;;;;;;7393430;19;20158;-81
2023/06/10 12:25:28;;;;;;;4.00;3.60;;;27.70;93.40;;;;;;7401750;19;20185;-83
2023/06/10 12:27:57;;;;;;;3.70;3.38;;;27.70;93.80;;;;;;7393361;19;20181;-80
2023/06/10 12:30:26;;;;;;;3.60;3.30;;;27.70;93.30;;;;;;7391030;19;20186;-81
2023/06/10 12:32:53;;;;;;;4.85;3.35;;;27.80;92.60;;;;;;7389010;19;20135;-80
2023/06/10 12:35:21;;;;;;;3.65;3.33;;;28.10;91.70;;;;;;7392099;19;20181;-79
2023/06/10 12:38:11;;;;;;;3.58;3.05;;;28.00;91.60;;;;;;7391663;19;20595;-80
2023/06/10 12:40:41;;;;;;;3.20;2.90;;;27.80;92.10;;;;;;7390033;19;20158;-81
2023/06/10 12:43:07;;;;;;;3.00;2.70;;;27.70;93.10;;;;;;7392279;19;20147;-82
2023/06/10 12:45:35;;;;;;;3.03;2.72;;;27.50;93.40;;;;;;7393881;19;20130;-80
2023/06/10 12:48:09;;;;;;;3.55;2.95;;;27.60;93.30;;;;;;7386901;19;20651;-79
2023/06/10 12:50:40;;;;;;;3.92;3.35;;;27.60;93.20;;;;;;7391963;19;20745;-80
2023/06/10 12:53:06;;;;;;;3.70;3.00;;;27.90;93.00;;;;;;7389908;19;20269;-81